D/T METAR WX W/DIR W/SPE G/SPE TEMP DEWP
23/05/19 14:18 EGDR 231318Z 32007KT 9999 FEW018 BKN120 16/08 Q1017 BLU TEMPO SCT020 WHT NW (320°) 8.1mph 16°C 8°C
23/05/19 13:21 EGDR 231221Z 25007KT 9999 FEW018 BKN120 16/10 Q1017 BLU TEMPO SCT020 WHT WSW (250°) 8.1mph 16°C 10°C
23/05/19 12:50 EGDR 231150Z 26006KT 9999 FEW018 BKN100 15/10 Q1017 BLU TEMPO SCT020 WHT W (260°) 6.9mph 15°C 10°C
23/05/19 12:24 EGDR 231124Z 24006KT 9999 FEW016 BKN100 14/09 Q1017 BLU TEMPO SCT020 WHT WSW (240°) 6.9mph 14°C 9°C
23/05/19 11:50 EGDR 231050Z 22007KT 9999 FEW016 SCT028 BKN100 14/10 Q1017 BLU TEMPO SCT020 WHT SW (220°) 8.1mph 14°C 10°C
23/05/19 11:19 EGDR 231019Z 22005KT 9999 FEW010 SCT028 BKN100 14/10 Q1017 BLU TEMPO SCT020 WHT SW (220°) 5.8mph 14°C 10°C
23/05/19 10:27 EGDR 230927Z 24005KT 9999 FEW010 BKN100 13/11 Q1017 BLU NOSIG WSW (240°) 5.8mph 13°C 11°C
23/05/19 09:50 EGDR 230850Z 23005KT 8000 HZ FEW004 SCT030 BKN150 13/11 Q1017 BLU NOSIG HZ SW (230°) 5.8mph 13°C 11°C
23/05/19 09:20 EGDR 230820Z 25004KT 7000 HZ FEW004 SCT100 BKN150 13/11 Q1017 WHT NOSIG HZ WSW (250°) 4.6mph 13°C 11°C
23/05/19 08:50 EGDR 230750Z 26005KT 4000 VCFG FEW001 SCT100 BKN150 12/11 Q1017 GRN NOSIG VCFG W (260°) 5.8mph 12°C 11°C
23/05/19 08:19 EGDR 230719Z 26005KT 2500 VCFG FEW000 SCT120 BKN160 12/12 Q1017 YLO1 TEMPO 5000 HZ SCT008 GRN VCFG W (260°) 5.8mph 12°C 12°C
23/05/19 07:21 EGDR 230621Z 00000KT 1200 BR SCT001 SCT120 BKN150 11/11 Q1017 RED NOSIG BR N (0°) 11°C 11°C
23/05/19 06:50 EGDR 230550Z 00000KT 0200 FG SCT000 SCT160 10/10 Q1017 RED NOSIG FG N (0°) 10°C 10°C
23/05/19 05:50 EGDR 230450Z 00000KT 0100 FG BKN000 10/10 Q1016 RED FG N (0°) 10°C 10°C
23/05/19 04:50 EGDR 230350Z 09001KT 0150 FG VV/// 10/09 Q1016 RED FG E (90°) 1.2mph 10°C 9°C
23/05/19 03:50 EGDR 230250Z 00000KT 0400 FG SCT000 OVC001 10/10 Q1017 RED FG N (0°) 10°C 10°C
23/05/19 02:50 EGDR 230150Z 00000KT 3000 HZ FEW001 SCT012 10/09 Q1017 YLO1 HZ N (0°) 10°C 9°C
23/05/19 01:50 EGDR 230050Z 00000KT 9999 FEW012 SCT200 10/07 Q1017 BLU NOSIG N (0°) 10°C 7°C
23/05/19 01:27 EGDR 230027Z 00000KT 9999 FEW012 10/08 Q1017 BLU NOSIG N (0°) 10°C 8°C
23/05/19 00:50 EGDR 222350Z 10001KT CAVOK 09/07 Q1018 BLU NOSIG E (100°) 1.2mph 9°C 7°C
23/05/19 00:24 EGDR 222324Z 12004KT CAVOK 09/07 Q1018 BLU NOSIG ESE (120°) 4.6mph 9°C 7°C
22/05/19 23:50 EGDR 222250Z 00000KT CAVOK 10/08 Q1018 BLU NOSIG N (0°) 10°C 8°C
22/05/19 23:25 EGDR 222225Z 00000KT CAVOK 10/09 Q1018 BLU NOSIG N (0°) 10°C 9°C
22/05/19 22:50 EGDR 222150Z 00000KT CAVOK 10/08 Q1018 BLU NOSIG N (0°) 10°C 8°C
22/05/19 21:50 EGDR 222050Z 00000KT CAVOK 12/09 Q1019 BLU NOSIG N (0°) 12°C 9°C
22/05/19 21:21 EGDR 222021Z 00000KT CAVOK 12/10 Q1019 BLU NOSIG N (0°) 12°C 10°C
22/05/19 20:25 EGDR 221925Z 00000KT CAVOK 13/09 Q1019 BLU NOSIG N (0°) 13°C 9°C
22/05/19 19:50 EGDR 221850Z 24004KT CAVOK 13/09 Q1019 BLU NOSIG WSW (240°) 4.6mph 13°C 9°C
22/05/19 19:25 EGDR 221825Z 25004KT CAVOK 14/10 Q1019 BLU NOSIG WSW (250°) 4.6mph 14°C 10°C
22/05/19 18:50 EGDR 221750Z 23005KT CAVOK 14/11 Q1019 BLU NOSIG SW (230°) 5.8mph 14°C 11°C
22/05/19 18:21 EGDR 221721Z 24006KT CAVOK 14/10 Q1019 BLU NOSIG WSW (240°) 6.9mph 14°C 10°C
22/05/19 17:50 EGDR 221650Z 24005KT CAVOK 15/09 Q1019 BLU NOSIG WSW (240°) 5.8mph 15°C 9°C
22/05/19 16:50 EGDR 221550Z 22007KT CAVOK 16/09 Q1019 BLU NOSIG SW (220°) 8.1mph 16°C 9°C
22/05/19 16:18 EGDR 221518Z 23006KT 9999 FEW040 16/10 Q1019 BLU NOSIG SW (230°) 6.9mph 16°C 10°C
22/05/19 15:20 EGDR 221420Z 22006KT 9999 FEW040 15/10 Q1019 BLU NOSIG SW (220°) 6.9mph 15°C 10°C
22/05/19 14:50 EGDR 221350Z 23006KT 9999 FEW040 16/09 Q1020 BLU NOSIG SW (230°) 6.9mph 16°C 9°C
22/05/19 13:50 EGDR 221250Z 23006KT 9999 FEW040 16/09 Q1020 BLU NOSIG SW (230°) 6.9mph 16°C 9°C
22/05/19 13:22 EGDR 221222Z 22006KT 9999 FEW040 16/10 Q1020 BLU NOSIG SW (220°) 6.9mph 16°C 10°C
22/05/19 12:50 EGDR 221150Z 24005KT 9999 FEW040 16/10 Q1020 BLU NOSIG WSW (240°) 5.8mph 16°C 10°C
22/05/19 11:50 EGDR 221050Z 22007KT 9999 FEW030 16/08 Q1020 BLU NOSIG SW (220°) 8.1mph 16°C 8°C
22/05/19 11:21 EGDR 221021Z 22005KT 9999 FEW030 16/09 Q1020 BLU NOSIG SW (220°) 5.8mph 16°C 9°C
22/05/19 10:26 EGDR 220926Z 12002KT 9999 FEW030 16/09 Q1020 BLU NOSIG ESE (120°) 2.3mph 16°C 9°C
22/05/19 09:50 EGDR 220850Z 01003KT 9999 FEW008 16/05 Q1020 BLU NOSIG N (10°) 3.5mph 16°C 5°C
22/05/19 09:23 EGDR 220823Z 05004KT 9999 FEW008 16/07 Q1020 BLU NOSIG NE (50°) 4.6mph 16°C 7°C
22/05/19 08:50 EGDR 220750Z 03003KT 9999 FEW010 SCT220 15/09 Q1020 BLU NOSIG NNE (30°) 3.5mph 15°C 9°C
22/05/19 08:27 EGDR 220727Z 02003KT 9999 FEW010 SCT250 14/08 Q1020 BLU NOSIG NNE (20°) 3.5mph 14°C 8°C
22/05/19 07:50 EGDR 220650Z 04005KT 9999 FEW010 SCT250 13/10 Q1020 BLU NOSIG NE (40°) 5.8mph 13°C 10°C
22/05/19 07:25 EGDR 220625Z 02004KT 9999 FEW012 SCT250 12/10 Q1020 BLU NOSIG NNE (20°) 4.6mph 12°C 10°C